Time;durP1;ratioP1;P1;durP2;ratioP2;P2;SDS_P1;SDS_P2;PMS_P1;PMS_P2;Temp;Humidity;BMP_temperature;BMP_pressure;BME280_temperature;BME280_humidity;BME280_pressure;Samples;Min_cycle;Max_cycle;Signal;HPM_P1;HPM_P2
2023/11/23 00:02:05;;;;;;;23.63;15.60;;;-0.60;99.90;;;;;;5051159;28;20055;-62
2023/11/23 00:04:31;;;;;;;26.08;15.38;;;-0.60;99.90;;;;;;5051192;28;20748;-62
2023/11/23 00:06:57;;;;;;;22.65;14.63;;;-0.40;99.90;;;;;;5054179;28;20023;-62
2023/11/23 00:09:24;;;;;;;24.48;14.30;;;-0.40;99.90;;;;;;5059055;28;20445;-63
2023/11/23 00:11:49;;;;;;;22.83;15.45;;;-0.30;99.90;;;;;;5054800;28;20091;-62
2023/11/23 00:14:15;;;;;;;23.48;14.85;;;-0.30;99.90;;;;;;5048773;28;20045;-62
2023/11/23 00:16:43;;;;;;;23.70;14.98;;;-0.30;99.90;;;;;;5050625;28;20041;-62
2023/11/23 00:19:10;;;;;;;23.50;15.02;;;-0.40;99.90;;;;;;5049477;28;20541;-62
2023/11/23 00:21:35;;;;;;;23.58;15.73;;;-0.40;99.90;;;;;;5049410;28;20103;-63
2023/11/23 00:24:01;;;;;;;22.73;15.25;;;-0.50;99.90;;;;;;5049847;28;20108;-62
2023/11/23 00:26:27;;;;;;;24.40;14.77;;;-0.40;99.90;;;;;;5048694;28;20021;-63
2023/11/23 00:28:53;;;;;;;24.38;14.50;;;-0.30;99.90;;;;;;5052654;28;20036;-63
2023/11/23 00:31:19;;;;;;;23.58;15.02;;;-0.30;99.90;;;;;;5047971;28;20040;-63
2023/11/23 00:33:44;;;;;;;23.17;14.65;;;-0.40;99.90;;;;;;5050680;28;20029;-63
2023/11/23 00:36:12;;;;;;;25.98;16.15;;;-0.30;99.90;;;;;;5049190;28;20355;-63
2023/11/23 00:38:40;;;;;;;25.73;16.27;;;-0.40;99.90;;;;;;5050130;28;20040;-63
2023/11/23 00:41:07;;;;;;;25.48;17.27;;;-0.40;99.90;;;;;;5049811;28;20078;-63
2023/11/23 00:43:33;;;;;;;25.65;16.17;;;-0.30;99.90;;;;;;5036168;28;20123;-63
2023/11/23 00:46:00;;;;;;;27.75;16.48;;;-0.30;99.90;;;;;;5050122;28;20047;-62
2023/11/23 00:48:27;;;;;;;25.02;16.10;;;-0.30;99.90;;;;;;5050238;28;20104;-62
2023/11/23 00:50:54;;;;;;;25.30;16.15;;;-0.40;99.90;;;;;;5050361;28;20082;-62
2023/11/23 00:53:21;;;;;;;26.15;16.27;;;-0.40;99.90;;;;;;5049726;28;20577;-62
2023/11/23 00:55:47;;;;;;;25.08;16.17;;;-0.30;99.90;;;;;;5050359;28;20488;-62
2023/11/23 00:58:12;;;;;;;22.73;15.57;;;-0.30;99.90;;;;;;5050185;28;20063;-62
2023/11/23 01:00:38;;;;;;;24.63;16.10;;;-0.20;99.90;;;;;;5051031;28;20057;-62
2023/11/23 01:03:04;;;;;;;27.67;17.00;;;-0.10;99.90;;;;;;5050492;28;20639;-62
2023/11/23 01:05:29;;;;;;;23.77;15.38;;;-0.10;99.90;;;;;;5049544;28;20069;-61
2023/11/23 01:07:56;;;;;;;23.38;15.18;;;0.00;99.90;;;;;;5050460;28;20459;-62
2023/11/23 01:10:22;;;;;;;22.00;15.05;;;0.10;99.90;;;;;;5049514;28;20025;-62
2023/11/23 01:12:49;;;;;;;25.27;14.88;;;0.10;99.90;;;;;;5050614;28;20031;-61
2023/11/23 01:15:14;;;;;;;21.95;15.00;;;0.20;99.90;;;;;;5049088;28;20021;-62
2023/11/23 01:17:40;;;;;;;23.50;15.00;;;0.20;99.90;;;;;;5056686;28;20441;-62
2023/11/23 01:20:07;;;;;;;27.45;16.42;;;0.20;99.90;;;;;;5053727;28;20029;-62
2023/11/23 01:22:33;;;;;;;21.25;15.15;;;0.20;99.90;;;;;;5053758;28;20032;-61
2023/11/23 01:24:58;;;;;;;23.83;15.50;;;0.20;99.90;;;;;;5054720;28;20035;-61
2023/11/23 01:27:24;;;;;;;22.98;15.15;;;0.20;99.90;;;;;;5053149;28;20540;-62
2023/11/23 01:29:50;;;;;;;23.77;15.82;;;0.20;99.90;;;;;;5054495;28;20097;-62
2023/11/23 01:32:15;;;;;;;23.85;15.30;;;0.20;99.90;;;;;;5052512;28;20033;-61
2023/11/23 01:34:41;;;;;;;25.05;16.55;;;0.20;99.90;;;;;;5055197;28;20068;-62
2023/11/23 01:37:06;;;;;;;22.95;15.13;;;0.20;99.90;;;;;;5053675;28;20040;-62
2023/11/23 01:39:32;;;;;;;23.60;15.70;;;0.20;99.90;;;;;;5053539;28;20078;-62
2023/11/23 01:41:58;;;;;;;28.95;16.48;;;0.10;99.90;;;;;;5053414;28;20466;-62
2023/11/23 01:44:24;;;;;;;25.33;16.27;;;0.10;99.90;;;;;;5045247;28;20078;-62
2023/11/23 01:46:49;;;;;;;24.00;16.27;;;0.20;99.90;;;;;;5054180;28;20501;-62
2023/11/23 01:49:18;;;;;;;26.95;16.35;;;0.30;99.90;;;;;;5053280;28;20021;-62
2023/11/23 01:51:44;;;;;;;24.90;15.43;;;0.30;99.90;;;;;;5042507;28;20025;-62
2023/11/23 01:54:09;;;;;;;25.05;15.85;;;0.30;99.90;;;;;;5053132;28;20025;-62
2023/11/23 01:56:35;;;;;;;25.10;15.45;;;0.30;99.90;;;;;;5053781;28;20446;-62
2023/11/23 01:59:04;;;;;;;25.40;15.43;;;0.20;99.90;;;;;;5052620;28;20104;-62
2023/11/23 02:01:30;;;;;;;24.50;15.95;;;0.10;99.90;;;;;;5040214;28;20034;-62
2023/11/23 02:03:56;;;;;;;26.55;14.68;;;0.10;99.90;;;;;;5050342;28;20083;-62
2023/11/23 02:06:21;;;;;;;21.25;14.82;;;0.00;99.90;;;;;;5052279;28;20099;-62
2023/11/23 02:08:48;;;;;;;25.20;15.90;;;0.00;99.90;;;;;;5054016;28;20103;-62
2023/11/23 02:11:14;;;;;;;27.65;17.08;;;-0.10;99.90;;;;;;5052471;28;20115;-62
2023/11/23 02:13:41;;;;;;;26.52;16.27;;;-0.10;99.90;;;;;;5050470;28;20373;-62
2023/11/23 02:16:07;;;;;;;27.20;16.67;;;-0.10;99.90;;;;;;5035197;28;20094;-62
2023/11/23 02:18:39;;;;;;;25.67;16.35;;;-0.10;99.90;;;;;;5053001;28;20087;-62
2023/11/23 02:21:06;;;;;;;28.17;17.85;;;-0.20;99.90;;;;;;5053056;28;20029;-62
2023/11/23 02:23:33;;;;;;;25.90;17.88;;;-0.20;99.90;;;;;;5052810;28;20431;-62
2023/11/23 02:25:58;;;;;;;28.13;17.65;;;-0.20;99.90;;;;;;5053338;28;20116;-62
2023/11/23 02:28:24;;;;;;;25.70;16.63;;;-0.10;99.90;;;;;;5052446;28;20104;-62
2023/11/23 02:30:50;;;;;;;25.85;15.63;;;-0.10;99.90;;;;;;5034131;28;20029;-62
2023/11/23 02:33:15;;;;;;;29.60;16.85;;;-0.10;99.90;;;;;;5052674;28;20430;-62
2023/11/23 02:35:41;;;;;;;27.27;16.77;;;-0.10;99.90;;;;;;5052838;28;20075;-62
2023/11/23 02:38:07;;;;;;;23.88;15.82;;;-0.10;99.90;;;;;;5036140;28;20372;-62
2023/11/23 02:40:32;;;;;;;27.42;16.30;;;-0.10;99.90;;;;;;5052357;28;20028;-62
2023/11/23 02:42:59;;;;;;;27.08;16.67;;;-0.10;99.90;;;;;;5053884;28;20098;-61
2023/11/23 02:45:24;;;;;;;26.17;16.23;;;0.00;99.90;;;;;;5059692;28;20025;-62
2023/11/23 02:47:50;;;;;;;25.77;16.30;;;0.00;99.90;;;;;;5053202;28;20077;-61
2023/11/23 02:50:16;;;;;;;24.05;14.27;;;0.10;99.90;;;;;;5049230;28;20021;-62
2023/11/23 02:52:41;;;;;;;25.30;16.52;;;0.10;99.90;;;;;;5038915;28;20374;-62
2023/11/23 02:55:09;;;;;;;24.58;15.75;;;0.10;99.90;;;;;;5051786;28;20111;-63
2023/11/23 02:57:34;;;;;;;27.00;16.15;;;0.20;99.90;;;;;;5052456;28;20052;-62
2023/11/23 03:00:00;;;;;;;23.90;14.63;;;0.20;99.90;;;;;;5052578;28;20061;-61
2023/11/23 03:02:26;;;;;;;24.55;15.45;;;0.20;99.90;;;;;;5051448;28;20029;-62
2023/11/23 03:04:53;;;;;;;24.33;14.80;;;0.20;99.90;;;;;;5052121;28;20075;-62
2023/11/23 03:07:19;;;;;;;23.52;14.70;;;0.30;99.90;;;;;;5051353;28;20037;-62
2023/11/23 03:09:45;;;;;;;21.75;13.80;;;0.30;99.90;;;;;;5052331;28;20480;-62
2023/11/23 03:12:11;;;;;;;24.80;14.70;;;0.40;99.90;;;;;;5050499;28;20493;-62
2023/11/23 03:14:37;;;;;;;23.00;14.07;;;0.40;99.90;;;;;;5052356;28;20056;-62
2023/11/23 03:17:04;;;;;;;22.80;14.07;;;0.30;99.90;;;;;;5052139;28;20045;-61
2023/11/23 03:19:29;;;;;;;22.35;13.75;;;0.30;99.90;;;;;;5051628;28;20056;-62
2023/11/23 03:21:55;;;;;;;24.48;14.40;;;0.30;99.90;;;;;;5051756;28;20516;-62
2023/11/23 03:24:20;;;;;;;21.80;14.23;;;0.30;99.90;;;;;;5051024;28;20433;-62
2023/11/23 03:26:46;;;;;;;21.85;14.70;;;0.30;99.90;;;;;;5051777;28;20029;-61
2023/11/23 03:29:12;;;;;;;22.52;13.20;;;0.20;99.90;;;;;;5051236;28;20059;-62
2023/11/23 03:31:38;;;;;;;20.42;12.18;;;0.20;99.90;;;;;;5051049;28;20041;-62
2023/11/23 03:34:03;;;;;;;22.65;12.75;;;0.20;99.90;;;;;;5056233;28;20377;-61
2023/11/23 03:36:30;;;;;;;23.15;12.85;;;0.30;99.90;;;;;;5050940;28;20033;-61
2023/11/23 03:38:56;;;;;;;19.92;13.02;;;0.30;99.90;;;;;;5051817;28;20036;-61
2023/11/23 03:41:21;;;;;;;20.38;11.57;;;0.30;99.90;;;;;;5050437;28;20382;-61
2023/11/23 03:43:47;;;;;;;16.73;11.13;;;0.30;99.90;;;;;;5051743;28;20074;-62
2023/11/23 03:46:12;;;;;;;16.85;10.77;;;0.30;99.90;;;;;;5050397;28;20032;-62
2023/11/23 03:48:38;;;;;;;18.38;11.93;;;0.20;99.90;;;;;;5051828;28;20096;-62
2023/11/23 03:51:04;;;;;;;16.73;10.45;;;0.20;99.90;;;;;;5048472;28;20025;-62
2023/11/23 03:53:30;;;;;;;18.08;11.20;;;0.20;99.90;;;;;;5050971;28;20060;-61
2023/11/23 03:55:56;;;;;;;16.52;10.27;;;0.10;99.90;;;;;;5051380;28;20029;-61
2023/11/23 03:58:21;;;;;;;17.77;10.35;;;0.10;99.90;;;;;;5050879;28;20055;-62
2023/11/23 04:00:48;;;;;;;17.67;10.63;;;0.10;99.90;;;;;;5050454;28;20060;-62
2023/11/23 04:03:15;;;;;;;16.90;10.32;;;0.00;99.90;;;;;;5050839;28;20037;-61
2023/11/23 04:05:41;;;;;;;18.52;11.02;;;0.00;99.90;;;;;;5050169;28;20028;-62
2023/11/23 04:08:07;;;;;;;19.45;12.20;;;0.00;99.90;;;;;;5049852;28;20013;-62
2023/11/23 04:10:32;;;;;;;24.33;13.05;;;-0.10;99.90;;;;;;5049574;28;20687;-62
2023/11/23 04:12:58;;;;;;;17.58;11.73;;;-0.10;99.90;;;;;;5050751;28;20029;-62
2023/11/23 04:15:24;;;;;;;20.27;11.82;;;-0.20;99.90;;;;;;5044435;28;20025;-62
2023/11/23 04:17:49;;;;;;;19.98;12.82;;;-0.20;99.90;;;;;;5050768;28;20044;-62
2023/11/23 04:20:15;;;;;;;20.50;11.73;;;-0.20;99.90;;;;;;5061511;28;20029;-62
2023/11/23 04:22:41;;;;;;;18.77;12.05;;;-0.20;99.90;;;;;;5051138;28;20087;-62
2023/11/23 04:25:07;;;;;;;19.90;12.57;;;-0.10;99.90;;;;;;5050581;28;20382;-62
2023/11/23 04:27:33;;;;;;;21.05;12.45;;;-0.10;99.90;;;;;;5050004;28;20029;-62
2023/11/23 04:29:59;;;;;;;18.88;11.88;;;0.00;99.90;;;;;;5050691;28;20079;-62
2023/11/23 04:32:25;;;;;;;20.98;11.65;;;0.00;99.90;;;;;;5048807;28;20063;-62
2023/11/23 04:34:50;;;;;;;20.88;11.88;;;0.00;99.90;;;;;;5051068;28;20029;-62
2023/11/23 04:37:17;;;;;;;17.75;11.23;;;-0.10;99.90;;;;;;5049740;28;20021;-62
2023/11/23 04:39:43;;;;;;;19.00;11.18;;;-0.10;99.90;;;;;;5050996;28;20082;-62
2023/11/23 04:42:08;;;;;;;18.52;11.45;;;-0.20;99.90;;;;;;5049093;28;20052;-62
2023/11/23 04:44:34;;;;;;;21.70;11.57;;;-0.30;99.90;;;;;;5051198;28;20084;-62
2023/11/23 04:46:59;;;;;;;19.13;10.73;;;-0.40;99.90;;;;;;5049968;28;20036;-61
2023/11/23 04:49:25;;;;;;;16.52;10.55;;;-0.50;99.90;;;;;;5050302;28;20029;-61
2023/11/23 04:51:51;;;;;;;18.70;11.25;;;-0.50;99.90;;;;;;5035062;28;20553;-62
2023/11/23 04:54:17;;;;;;;21.08;11.80;;;-0.60;99.90;;;;;;5051661;28;20482;-61
2023/11/23 04:56:43;;;;;;;19.85;11.55;;;-0.70;99.90;;;;;;5053997;28;20090;-61
2023/11/23 04:59:08;;;;;;;18.77;11.20;;;-0.70;99.90;;;;;;5054549;28;20032;-61
2023/11/23 05:01:34;;;;;;;18.42;10.35;;;-0.70;99.90;;;;;;5054616;28;20474;-60
2023/11/23 05:04:00;;;;;;;17.75;10.27;;;-0.60;99.90;;;;;;5054309;28;20048;-63
2023/11/23 05:06:26;;;;;;;17.02;9.75;;;-0.60;99.90;;;;;;5053565;28;20056;-62
2023/11/23 05:08:51;;;;;;;15.95;10.13;;;-0.50;99.90;;;;;;5054317;28;20028;-62
2023/11/23 05:11:17;;;;;;;15.02;9.30;;;-0.40;99.90;;;;;;5053475;28;20032;-62
2023/11/23 05:13:43;;;;;;;16.35;10.75;;;-0.40;99.90;;;;;;5054417;28;20043;-61
2023/11/23 05:16:08;;;;;;;15.48;9.38;;;-0.50;99.90;;;;;;5054066;28;20120;-62
2023/11/23 05:18:34;;;;;;;16.60;10.13;;;-0.50;99.90;;;;;;5053872;28;20052;-62
2023/11/23 05:21:00;;;;;;;15.93;10.13;;;-0.60;99.90;;;;;;5059073;28;20103;-62
2023/11/23 05:23:25;;;;;;;15.18;9.00;;;-0.60;99.90;;;;;;5061745;28;20584;-64
2023/11/23 05:25:52;;;;;;;14.15;8.85;;;-0.70;99.90;;;;;;5053623;28;20474;-62
2023/11/23 05:28:18;;;;;;;14.50;8.90;;;-0.80;99.90;;;;;;5053165;28;20032;-62
2023/11/23 05:30:45;;;;;;;15.77;9.13;;;-0.90;99.90;;;;;;5054889;28;20021;-62
2023/11/23 05:33:11;;;;;;;17.15;9.75;;;-0.90;99.90;;;;;;5056075;28;20108;-62
2023/11/23 05:35:37;;;;;;;18.02;10.52;;;-1.00;99.90;;;;;;5055519;28;20108;-61
2023/11/23 05:38:02;;;;;;;19.02;10.40;;;-1.10;99.90;;;;;;5053706;28;20037;-61
2023/11/23 05:40:28;;;;;;;18.15;10.65;;;-1.10;99.90;;;;;;5052896;28;20029;-62
2023/11/23 05:42:53;;;;;;;18.42;10.65;;;-1.20;99.90;;;;;;5053552;28;20029;-61
2023/11/23 05:45:19;;;;;;;18.45;10.63;;;-1.20;99.90;;;;;;5052800;28;20029;-62
2023/11/23 05:47:45;;;;;;;20.02;10.45;;;-1.30;99.90;;;;;;5053506;28;20093;-62
2023/11/23 05:50:11;;;;;;;18.38;10.07;;;-1.30;99.90;;;;;;5050983;28;20479;-62
2023/11/23 05:52:37;;;;;;;19.52;11.30;;;-1.30;99.90;;;;;;5039219;28;20040;-62
2023/11/23 05:55:03;;;;;;;18.42;11.07;;;-1.40;99.90;;;;;;5053911;28;20476;-62
2023/11/23 05:57:29;;;;;;;17.75;10.63;;;-1.40;99.90;;;;;;5052345;28;20136;-61
2023/11/23 05:59:54;;;;;;;18.95;10.18;;;-1.40;99.90;;;;;;5053374;28;20051;-63
2023/11/23 06:02:20;;;;;;;19.50;11.27;;;-1.40;99.90;;;;;;5052091;28;20097;-61
2023/11/23 06:04:46;;;;;;;17.50;10.20;;;-1.40;99.90;;;;;;5052451;28;20044;-62
2023/11/23 06:07:12;;;;;;;22.60;11.30;;;-1.40;99.90;;;;;;5052083;28;20029;-61
2023/11/23 06:09:38;;;;;;;20.50;11.32;;;-1.30;99.90;;;;;;5053241;28;20025;-61
2023/11/23 06:12:05;;;;;;;21.67;10.90;;;-1.30;99.90;;;;;;5052832;28;20381;-61
2023/11/23 06:14:31;;;;;;;20.33;10.98;;;-1.30;99.90;;;;;;5052540;28;20036;-61
2023/11/23 06:16:57;;;;;;;18.55;10.60;;;-1.30;99.90;;;;;;5052200;28;20045;-62
2023/11/23 06:19:22;;;;;;;24.33;10.85;;;-1.30;99.90;;;;;;5051959;28;20094;-62
2023/11/23 06:21:49;;;;;;;21.77;10.75;;;-1.30;99.90;;;;;;5064183;28;20031;-62
2023/11/23 06:24:14;;;;;;;19.65;11.30;;;-1.30;99.90;;;;;;5053824;28;20033;-62
2023/11/23 06:26:40;;;;;;;20.30;10.27;;;-1.30;99.90;;;;;;5050381;28;20033;-62
2023/11/23 06:29:06;;;;;;;20.90;10.57;;;-1.20;99.90;;;;;;5052536;28;20028;-67
2023/11/23 06:31:31;;;;;;;24.60;10.82;;;-1.10;99.90;;;;;;5051704;28;20029;-63
2023/11/23 06:33:58;;;;;;;21.40;10.73;;;-1.00;99.90;;;;;;5052550;28;20029;-60
2023/11/23 06:36:24;;;;;;;19.95;10.32;;;-1.00;99.90;;;;;;5034981;28;20116;-64
2023/11/23 06:38:49;;;;;;;18.55;10.05;;;-0.90;99.90;;;;;;5052784;28;20056;-65
2023/11/23 06:41:22;;;;;;;17.42;10.18;;;-0.90;99.90;;;;;;5051676;28;20029;-62
2023/11/23 06:43:49;;;;;;;19.45;10.30;;;-0.90;99.90;;;;;;5052351;28;20028;-62
2023/11/23 06:46:18;;;;;;;22.60;10.60;;;-0.90;99.90;;;;;;5048516;28;20045;-64
2023/11/23 06:48:44;;;;;;;29.57;11.37;;;-0.90;99.90;;;;;;5045088;28;20029;-65
2023/11/23 06:51:10;;;;;;;20.95;11.43;;;-1.00;99.90;;;;;;5047281;28;20478;-66
2023/11/23 06:53:57;;;;;;;38.13;15.77;;;-1.00;99.90;;;;;;5050419;28;20115;-66
2023/11/23 06:56:22;;;;;;;21.38;10.95;;;-1.00;99.90;;;;;;5043124;28;20473;-63
2023/11/23 06:58:48;;;;;;;23.90;11.27;;;-1.00;99.90;;;;;;5043631;28;20094;-64
2023/11/23 07:01:14;;;;;;;18.08;9.73;;;-1.00;99.90;;;;;;5051973;28;20029;-64
2023/11/23 07:03:41;;;;;;;17.00;9.15;;;-1.00;99.90;;;;;;5051999;28;20028;-63
2023/11/23 07:06:07;;;;;;;20.02;9.23;;;-1.00;99.90;;;;;;5050693;28;20112;-63
2023/11/23 07:08:37;;;;;;;17.60;8.85;;;-0.90;99.90;;;;;;5051800;28;20521;-64
2023/11/23 07:11:07;;;;;;;16.45;8.88;;;-0.90;99.90;;;;;;5039368;28;20362;-65
2023/11/23 07:13:33;;;;;;;16.88;10.00;;;-0.80;99.90;;;;;;5053154;28;20056;-63
2023/11/23 07:16:01;;;;;;;14.98;8.55;;;-0.70;99.90;;;;;;5051559;28;20021;-63
2023/11/23 07:18:27;;;;;;;17.65;7.55;;;-0.60;99.90;;;;;;5050476;28;20109;-63
2023/11/23 07:20:56;;;;;;;11.68;7.65;;;-0.60;99.90;;;;;;5053620;28;20104;-64
2023/11/23 07:23:22;;;;;;;12.27;7.60;;;-0.50;99.90;;;;;;5048230;28;20065;-63
2023/11/23 07:25:48;;;;;;;10.20;6.13;;;-0.50;99.90;;;;;;5050719;28;20490;-65
2023/11/23 07:28:14;;;;;;;11.57;6.93;;;-0.30;99.90;;;;;;5050416;28;20029;-66
2023/11/23 07:30:40;;;;;;;15.82;7.82;;;-0.20;99.90;;;;;;5041874;28;20478;-64
2023/11/23 07:33:07;;;;;;;16.83;8.30;;;-0.10;99.90;;;;;;5044317;28;20028;-63
2023/11/23 07:35:33;;;;;;;18.25;8.23;;;0.00;99.90;;;;;;5046163;28;20039;-64
2023/11/23 07:38:00;;;;;;;12.35;6.50;;;0.00;99.90;;;;;;5050759;28;20033;-64
2023/11/23 07:40:26;;;;;;;12.93;7.07;;;0.10;99.90;;;;;;5055114;28;20051;-64
2023/11/23 07:42:51;;;;;;;15.05;8.02;;;0.20;99.90;;;;;;5063453;28;20025;-64
2023/11/23 07:45:17;;;;;;;12.40;8.18;;;0.30;99.90;;;;;;5051103;28;20033;-63
2023/11/23 07:47:43;;;;;;;13.60;7.85;;;0.40;99.90;;;;;;5052568;28;20033;-65
2023/11/23 07:50:15;;;;;;;15.30;8.43;;;0.40;99.90;;;;;;5043392;28;20041;-63
2023/11/23 07:52:42;;;;;;;16.77;8.77;;;0.40;99.90;;;;;;5047843;28;20037;-63
2023/11/23 07:55:10;;;;;;;16.27;8.95;;;0.40;99.90;;;;;;5052224;28;20025;-64
2023/11/23 07:57:36;;;;;;;16.15;9.63;;;0.40;99.90;;;;;;5051358;28;20025;-63
2023/11/23 08:00:04;;;;;;;22.88;9.63;;;0.30;99.90;;;;;;5053606;28;20098;-66
2023/11/23 08:02:30;;;;;;;18.58;9.68;;;0.40;99.90;;;;;;5033902;28;20660;-63
2023/11/23 08:04:56;;;;;;;12.05;6.88;;;0.40;99.90;;;;;;5050650;28;20025;-63
2023/11/23 08:07:22;;;;;;;13.25;6.85;;;0.50;99.90;;;;;;5053015;28;20033;-63
2023/11/23 08:09:48;;;;;;;11.50;6.38;;;0.70;99.90;;;;;;5050843;28;20112;-63
2023/11/23 08:12:13;;;;;;;7.63;4.72;;;0.90;99.90;;;;;;5035393;28;20033;-63
2023/11/23 08:14:39;;;;;;;9.15;4.72;;;1.10;99.90;;;;;;5038832;28;20030;-63
2023/11/23 08:17:05;;;;;;;6.00;4.35;;;1.40;99.90;;;;;;5049027;28;20049;-63
2023/11/23 08:19:33;;;;;;;7.22;4.18;;;1.80;99.90;;;;;;5039066;28;20028;-63
2023/11/23 08:21:59;;;;;;;4.90;3.53;;;2.00;99.90;;;;;;5049631;28;20482;-63
2023/11/23 08:24:27;;;;;;;5.57;3.58;;;;;;;;;;5047093;28;20033;-63
2023/11/23 08:26:53;;;;;;;5.82;3.72;;;2.50;99.90;;;;;;5048502;28;20041;-63
2023/11/23 08:29:19;;;;;;;5.32;3.95;;;2.80;99.90;;;;;;5049047;28;20108;-63
2023/11/23 08:31:45;;;;;;;5.13;3.53;;;3.00;99.90;;;;;;5049687;28;20028;-63
2023/11/23 08:34:11;;;;;;;4.43;3.40;;;3.20;99.90;;;;;;5063811;28;20021;-63
2023/11/23 08:36:41;;;;;;;6.40;3.60;;;3.40;99.90;;;;;;5050427;28;20035;-62
2023/11/23 08:39:11;;;;;;;4.63;3.60;;;3.70;99.90;;;;;;5060543;28;20032;-62
2023/11/23 08:41:40;;;;;;;6.30;3.28;;;3.90;99.90;;;;;;5050166;28;20037;-62
2023/11/23 08:44:06;;;;;;;7.60;3.80;;;4.00;99.90;;;;;;5050577;28;20033;-62
2023/11/23 08:46:35;;;;;;;5.63;3.45;;;4.20;99.90;;;;;;5049546;28;20104;-62
2023/11/23 08:49:01;;;;;;;4.75;3.50;;;4.30;99.90;;;;;;5050512;28;20374;-63
2023/11/23 08:51:27;;;;;;;6.07;3.58;;;4.40;99.90;;;;;;5060854;28;20020;-62
2023/11/23 08:53:52;;;;;;;6.20;3.88;;;4.50;99.90;;;;;;5051031;28;20143;-62
2023/11/23 08:56:18;;;;;;;5.63;3.70;;;4.60;99.90;;;;;;5049780;28;20124;-63
2023/11/23 08:58:43;;;;;;;6.95;3.83;;;4.70;99.90;;;;;;5051063;28;20064;-62
2023/11/23 09:01:10;;;;;;;3.33;2.95;;;4.80;99.90;;;;;;5049615;28;20033;-63
2023/11/23 09:03:36;;;;;;;5.15;3.03;;;5.00;99.90;;;;;;5050219;28;20029;-62
2023/11/23 09:06:03;;;;;;;5.63;3.65;;;5.10;99.90;;;;;;5056809;28;20031;-62
2023/11/23 09:08:29;;;;;;;3.70;3.13;;;5.20;99.90;;;;;;5061647;28;20033;-62
2023/11/23 09:10:55;;;;;;;3.95;3.08;;;5.20;99.90;;;;;;5060170;28;20024;-62
2023/11/23 09:13:22;;;;;;;6.63;3.45;;;5.30;99.90;;;;;;5052978;28;20371;-62
2023/11/23 09:15:47;;;;;;;5.88;3.33;;;5.30;99.90;;;;;;5069386;28;20027;-62
2023/11/23 09:18:13;;;;;;;4.55;3.05;;;5.30;99.90;;;;;;5052852;28;20057;-62
2023/11/23 09:20:39;;;;;;;4.25;3.38;;;5.30;99.90;;;;;;5062090;28;20036;-62
2023/11/23 09:23:05;;;;;;;5.72;4.03;;;5.30;99.90;;;;;;5055490;28;20041;-62
2023/11/23 09:25:33;;;;;;;5.93;3.08;;;5.20;99.90;;;;;;5042098;28;20036;-62
2023/11/23 09:27:59;;;;;;;4.55;3.10;;;5.30;99.90;;;;;;5045046;28;20057;-62
2023/11/23 09:30:25;;;;;;;7.68;2.92;;;5.30;99.90;;;;;;5048505;28;20029;-62
2023/11/23 09:32:52;;;;;;;4.07;3.10;;;5.40;99.90;;;;;;5050433;28;20032;-62
2023/11/23 09:35:19;;;;;;;5.53;3.63;;;5.40;99.90;;;;;;5031190;28;20385;-62
2023/11/23 09:37:44;;;;;;;3.67;2.53;;;5.50;99.90;;;;;;5050305;28;20029;-62
2023/11/23 09:40:16;;;;;;;5.70;3.92;;;5.50;99.90;;;;;;5051186;28;20437;-62
2023/11/23 09:42:42;;;;;;;4.93;3.35;;;5.60;99.90;;;;;;5060623;28;20039;-62
2023/11/23 09:45:12;;;;;;;5.68;3.47;;;5.70;99.90;;;;;;5072505;28;20107;-62
2023/11/23 09:47:38;;;;;;;;;;;5.80;99.90;;;;;;5070633;28;20064;-62
2023/11/23 09:50:05;;;;;;;4.05;2.65;;;5.90;99.90;;;;;;5070725;28;19947;-62
2023/11/23 09:52:33;;;;;;;4.05;2.95;;;6.00;99.90;;;;;;5064484;28;20044;-62
2023/11/23 09:55:02;;;;;;;4.95;2.90;;;6.00;99.90;;;;;;5053410;28;20041;-62
2023/11/23 09:57:28;;;;;;;6.10;2.72;;;6.10;99.90;;;;;;5052354;28;20033;-62
2023/11/23 09:59:55;;;;;;;4.25;2.40;;;6.20;99.90;;;;;;5051233;28;20036;-62
2023/11/23 10:02:23;;;;;;;4.90;2.17;;;6.20;99.90;;;;;;5065744;28;20067;-62
2023/11/23 10:04:49;;;;;;;2.85;2.28;;;6.50;99.90;;;;;;5064909;28;20685;-62
2023/11/23 10:07:19;;;;;;;3.05;2.40;;;6.50;99.90;;;;;;5052141;28;20044;-62
2023/11/23 10:09:46;;;;;;;3.92;2.47;;;6.60;99.90;;;;;;5073540;28;20036;-62
2023/11/23 10:12:12;;;;;;;2.35;2.15;;;6.70;99.90;;;;;;5056027;28;20044;-62
2023/11/23 10:14:39;;;;;;;5.57;2.40;;;6.80;99.90;;;;;;5051163;28;20390;-62
2023/11/23 10:17:06;;;;;;;3.97;2.40;;;6.80;99.90;;;;;;5051963;28;20438;-62
2023/11/23 10:19:32;;;;;;;2.53;2.25;;;6.80;99.90;;;;;;5065387;28;20033;-63
2023/11/23 10:22:03;;;;;;;4.40;2.05;;;6.90;99.90;;;;;;5054979;28;20418;-62
2023/11/23 10:24:33;;;;;;;3.60;2.53;;;;;;;;;;5052813;28;20055;-62
2023/11/23 10:26:59;;;;;;;3.95;2.08;;;;;;;;;;5052857;28;20151;-62
2023/11/23 10:29:28;;;;;;;4.45;2.78;;;;;;;;;;5052738;28;20031;-63
2023/11/23 10:32:01;;;;;;;4.80;2.63;;;;;;;;;;5065882;28;20027;-62
2023/11/23 10:34:30;;;;;;;5.22;2.67;;;;;;;;;;5040596;28;20625;-62
2023/11/23 10:36:56;;;;;;;11.60;4.82;;;;;;;;;;5059367;28;20023;-62
2023/11/23 10:39:23;;;;;;;3.45;2.22;;;;;;;;;;5059606;28;20029;-62
2023/11/23 10:41:49;;;;;;;5.38;2.40;;;;;;;;;;5052590;28;20032;-62
2023/11/23 10:44:15;;;;;;;5.43;3.03;;;;;;;;;;5052205;28;20482;-62
2023/11/23 10:46:44;;;;;;;3.58;2.88;;;;;;;;;;5052625;28;20040;-63
2023/11/23 10:49:12;;;;;;;5.13;2.60;;;;;;;;;;5060123;28;20115;-63
2023/11/23 10:51:38;;;;;;;6.72;3.08;;;;;;;;;;5058050;28;20466;-63
2023/11/23 10:54:04;;;;;;;4.80;2.58;;;;;;;;;;5052957;28;20037;-63
2023/11/23 10:56:31;;;;;;;6.88;2.63;;;;;;;;;;5052024;28;20021;-63
2023/11/23 10:58:59;;;;;;;4.68;2.67;;;;;;;;;;5054870;28;20052;-63
2023/11/23 11:01:26;;;;;;;4.28;2.30;;;;;;;;;;5060396;28;20021;-63
2023/11/23 11:03:53;;;;;;;3.35;2.78;;;;;;;;;;5061337;28;20477;-63
2023/11/23 11:06:21;;;;;;;3.03;1.90;;;;;;;;;;5061653;28;20434;-63
2023/11/23 11:08:48;;;;;;;4.40;2.75;;;;;;;;;;5052259;28;20035;-63
2023/11/23 11:11:20;;;;;;;3.95;2.30;;;;;;;;;;5051509;28;20377;-63
2023/11/23 11:13:46;;;;;;;6.57;2.35;;;;;;;;;;5053377;28;20462;-63
2023/11/23 11:16:14;;;;;;;3.58;2.47;;;;;;;;;;5051313;28;20083;-63
2023/11/23 11:18:40;;;;;;;3.42;2.45;;;;;;;;;;5052334;28;20043;-63
2023/11/23 11:21:09;;;;;;;6.03;2.58;;;;;;;;;;5051983;28;20048;-63
2023/11/23 11:23:41;;;;;;;4.32;2.83;;;;;;;;;;5052746;28;20036;-63
2023/11/23 11:26:11;;;;;;;3.35;2.55;;;;;;;;;;5051341;28;20086;-63
2023/11/23 11:28:38;;;;;;;3.83;2.40;;;;;;;;;;5052683;28;20029;-63
2023/11/23 11:31:08;;;;;;;4.93;2.92;;;;;;;;;;5052081;28;20029;-63
2023/11/23 11:33:36;;;;;;;5.70;3.08;;;;;;;;;;5052036;28;20025;-63
2023/11/23 11:36:02;;;;;;;6.72;2.53;;;;;;;;;;5051346;28;20116;-63
2023/11/23 11:38:28;;;;;;;6.72;3.20;;;;;;;;;;5053548;28;20047;-68
2023/11/23 11:40:54;;;;;;;6.80;2.67;;;;;;;;;;5063125;28;20370;-68
2023/11/23 11:43:22;;;;;;;5.70;3.13;;;;;;;;;;5051199;28;20029;-75
2023/11/23 11:45:51;;;;;;;3.22;2.60;;;;;;;;;;5051694;28;20082;-68
2023/11/23 11:48:18;;;;;;;5.38;3.00;;;;;;;;;;5050477;28;20068;-69
2023/11/23 11:50:45;;;;;;;6.18;2.90;;;;;;;;;;5051403;28;20063;-66
2023/11/23 11:53:13;;;;;;;4.28;2.45;;;;;;;;;;5051189;28;20032;-67
2023/11/23 11:55:41;;;;;;;3.92;2.42;;;;;;;;;;5051288;28;20096;-66
2023/11/23 11:58:08;;;;;;;5.15;3.30;;;;;;;;;;5051195;28;20028;-67
2023/11/23 12:00:36;;;;;;;5.72;3.20;;;;;;;;;;5052546;28;20074;-67
2023/11/23 12:03:04;;;;;;;5.25;3.03;;;;;;;;;;5034515;28;20029;-66
2023/11/23 12:05:32;;;;;;;6.97;3.20;;;;;;;;;;5061425;28;20036;-65
2023/11/23 12:07:59;;;;;;;4.43;2.63;;;;;;;;;;5046090;28;20448;-65
2023/11/23 12:10:37;;;;;;;5.28;2.72;;;;;;;;;;5060129;28;20029;-65
2023/11/23 12:13:04;;;;;;;4.30;2.60;;;;;;;;;;5051325;28;20116;-67
2023/11/23 12:15:31;;;;;;;3.95;2.15;;;;;;;;;;5050146;28;20147;-65
2023/11/23 12:18:00;;;;;;;4.50;2.28;;;;;;;;;;5050597;28;20049;-65
2023/11/23 12:20:37;;;;;;;2.27;1.83;;;;;;;;;;5050887;28;20029;-65
2023/11/23 12:23:04;;;;;;;3.65;2.55;;;;;;;;;;5060764;28;20021;-65
2023/11/23 12:25:32;;;;;;;2.95;2.40;;;;;;;;;;5050441;28;20128;-65
2023/11/23 12:27:59;;;;;;;6.40;2.13;;;;;;;;;;5034257;28;20430;-65
2023/11/23 12:30:26;;;;;;;3.70;2.20;;;;;;;;;;5050189;28;20124;-64
2023/11/23 12:32:53;;;;;;;3.38;2.33;;;;;;;;;;5050879;28;20103;-64
2023/11/23 12:35:20;;;;;;;2.40;1.80;;;;;;;;;;5049930;28;20120;-66
2023/11/23 12:37:47;;;;;;;3.85;2.58;;;;;;;;;;5051572;28;20028;-65
2023/11/23 12:40:14;;;;;;;2.65;2.10;;;;;;;;;;5049987;28;20497;-65
2023/11/23 12:42:40;;;;;;;4.53;2.25;;;8.30;99.90;;;;;;5050223;28;20041;-65
2023/11/23 12:45:08;;;;;;;2.70;1.73;;;8.40;99.90;;;;;;5049096;28;20086;-65
2023/11/23 12:47:36;;;;;;;2.42;1.83;;;8.50;99.90;;;;;;5050561;28;20116;-65
2023/11/23 12:50:04;;;;;;;2.03;1.42;;;8.50;99.90;;;;;;5051130;28;20048;-64
2023/11/23 12:52:32;;;;;;;1.58;1.48;;;8.60;99.90;;;;;;5048463;28;20029;-65
2023/11/23 12:55:00;;;;;;;3.80;1.30;;;8.80;99.90;;;;;;5051189;28;20419;-64